Terminal Aerodrome Forecast
Issued by NWS Denver/Boulder, CO

Home | Current Version | Previous Version | Text Only | Print | Product List | Glossary On
Versions: 1 2 3 4 5 6 7 8 9 10 11 12 13 14 15 16 17 18 19 20 21 22 23 24 25 26 27 28 29 30 31 32 33
000
FTUS45 KBOU 192335
TAFDEN
TAF
KDEN 192335Z 2000/2106 30011KT P6SM VCSH SCT080 BKN110
      TEMPO 2000/2001 VRB15G25KT -SHRA BKN080
     FM200200 15010KT P6SM SCT080 BKN100
     FM200700 21009KT P6SM FEW100 SCT140 BKN200
     FM201600 29007KT P6SM SCT110 BKN200
     FM201800 36010KT P6SM SCT080 SCT120
     FM202100 02012KT P6SM SCT080 BKN120
     FM210200 15008KT P6SM SCT080 BKN120=

USA.gov is the U.S. government's official web portal to all federal, state and local government web resources and services.